createdAt,value
2023-08-17T00:07:36.868Z,79.54
2023-08-17T00:22:38.577Z,81.97
2023-08-17T00:37:40.341Z,80.55
2023-08-17T00:52:43.293Z,80.25
2023-08-17T01:07:45.012Z,76.91
2023-08-17T01:22:50.078Z,72.93
2023-08-17T01:37:56.803Z,72.54
2023-08-17T01:52:58.551Z,67.74
2023-08-17T02:08:00.252Z,65.96
2023-08-17T02:23:02.395Z,68.62
2023-08-17T02:38:04.286Z,70.86
2023-08-17T02:53:06.078Z,73.34
2023-08-17T03:08:07.762Z,73.57
2023-08-17T03:23:09.730Z,69.98
2023-08-17T03:38:11.425Z,72.26
2023-08-17T03:53:13.164Z,73.51
2023-08-17T04:08:14.877Z,69.66
2023-08-17T04:23:16.553Z,68.84
2023-08-17T04:38:18.342Z,69.27
2023-08-17T04:53:20.116Z,75.45
2023-08-17T05:08:23.316Z,75.76
2023-08-17T05:23:25.106Z,76.16
2023-08-17T05:38:26.924Z,76.11
2023-08-17T05:53:28.616Z,78.30
2023-08-17T06:08:31.116Z,73.43
2023-08-17T06:23:32.831Z,70.36
2023-08-17T06:38:34.604Z,69.81
2023-08-17T06:53:36.318Z,67.99
2023-08-17T07:08:38.064Z,67.38
2023-08-17T07:23:39.854Z,63.69
2023-08-17T07:38:41.576Z,60.48
2023-08-17T07:53:43.326Z,58.87
2023-08-17T08:08:44.988Z,60.51
2023-08-17T08:23:46.690Z,61.96
2023-08-17T08:38:48.358Z,61.58
2023-08-17T08:53:57.030Z,61.41
2023-08-17T09:08:59.826Z,60.23
2023-08-17T09:24:01.561Z,59.99
2023-08-17T09:39:04.543Z,58.67
2023-08-17T09:54:06.906Z,56.36
2023-08-17T10:09:13.013Z,53.43
2023-08-17T10:24:15.099Z,51.62
2023-08-17T10:55:45.757Z,48.14
2023-08-17T11:11:05.511Z,46.91
2023-08-17T11:26:08.850Z,43.91
2023-08-17T11:41:18.579Z,44.14
2023-08-17T11:56:21.566Z,45.39
2023-08-17T12:11:26.277Z,48.11
2023-08-17T12:26:28.815Z,48.58
2023-08-17T12:41:30.682Z,50.41
2023-08-17T12:56:32.391Z,50.70
2023-08-17T13:11:34.063Z,54.43
2023-08-17T13:26:35.869Z,56.31
2023-08-17T13:41:37.638Z,57.16
2023-08-17T13:56:39.298Z,56.23
2023-08-17T14:11:41.004Z,55.51
2023-08-17T14:26:42.868Z,55.82
2023-08-17T14:41:46.763Z,55.38
2023-08-17T14:56:48.825Z,54.25
2023-08-17T15:11:51.979Z,54.55
2023-08-17T15:26:53.679Z,54.18
2023-08-17T15:41:55.514Z,55.09
2023-08-17T15:56:57.326Z,56.42
2023-08-17T16:11:59.135Z,55.74
2023-08-17T16:27:02.276Z,55.67
2023-08-17T16:42:04.073Z,57.63
2023-08-17T16:57:05.906Z,58.37
2023-08-17T17:12:07.729Z,58.42
2023-08-17T17:27:09.488Z,60.22
2023-08-17T17:42:11.188Z,63.08
2023-08-17T17:57:12.863Z,63.11
2023-08-17T18:12:14.561Z,62.83
2023-08-17T18:27:16.199Z,63.48
2023-08-17T18:42:17.950Z,63.88
2023-08-17T18:57:19.635Z,64.58
2023-08-17T19:12:21.606Z,62.97
2023-08-17T19:27:23.476Z,63.59
2023-08-17T19:42:25.184Z,63.93
2023-08-17T19:57:27.029Z,64.37
2023-08-17T20:12:29.785Z,65.60
2023-08-17T20:27:31.478Z,65.63
2023-08-17T20:42:33.184Z,64.99
2023-08-17T20:57:34.911Z,65.08
2023-08-17T21:12:36.671Z,65.33
2023-08-17T21:27:39.716Z,65.42
2023-08-17T21:42:41.377Z,67.17
2023-08-17T21:57:43.179Z,68.00
2023-08-17T22:12:44.848Z,68.47
2023-08-17T22:27:46.939Z,68.16
2023-08-17T22:42:48.597Z,68.19
2023-08-17T22:57:50.252Z,67.38
2023-08-17T23:12:51.949Z,66.56
2023-08-17T23:27:53.712Z,64.83
2023-08-17T23:42:55.424Z,64.01
2023-08-17T23:57:57.152Z,64.86
